Time;durP1;ratioP1;P1;durP2;ratioP2;P2;SDS_P1;SDS_P2;PMS_P1;PMS_P2;Temp;Humidity;BMP_temperature;BMP_pressure;BME280_temperature;BME280_humidity;BME280_pressure;Samples;Min_cycle;Max_cycle;Signal;HPM_P1;HPM_P2
2022/10/26 00:00:04;;;;;;;2.10;1.90;;;18.90;69.20;;;;;;6184920;23;20170;-80
2022/10/26 00:02:30;;;;;;;2.33;2.13;;;18.80;69.10;;;;;;6159714;23;20147;-80
2022/10/26 00:04:56;;;;;;;2.50;2.30;;;18.80;69.20;;;;;;6160525;23;20151;-80
2022/10/26 00:07:22;;;;;;;2.33;2.13;;;18.80;69.20;;;;;;6185124;23;20185;-79
2022/10/26 00:09:48;;;;;;;2.45;2.10;;;18.80;69.30;;;;;;6160232;23;20481;-80
2022/10/26 00:12:14;;;;;;;2.55;1.80;;;18.80;69.20;;;;;;6160657;23;20469;-81
2022/10/26 00:14:39;;;;;;;2.13;1.92;;;18.80;69.20;;;;;;6184416;23;20572;-79
2022/10/26 00:17:05;;;;;;;2.40;2.00;;;18.80;69.30;;;;;;6184244;23;20387;-80
2022/10/26 00:19:33;;;;;;;2.60;2.35;;;18.80;69.30;;;;;;6184521;23;20510;-80
2022/10/26 00:22:00;;;;;;;2.10;1.92;;;18.70;69.30;;;;;;6159689;23;20193;-81
2022/10/26 00:24:26;;;;;;;2.17;1.98;;;18.80;69.30;;;;;;6184893;23;20146;-80
2022/10/26 00:26:51;;;;;;;2.13;1.92;;;18.80;69.30;;;;;;6185051;23;20142;-80
2022/10/26 00:29:18;;;;;;;2.28;2.08;;;18.80;69.30;;;;;;6184473;23;20429;-80
2022/10/26 00:31:44;;;;;;;2.13;1.92;;;18.80;69.30;;;;;;6184789;23;20555;-79
2022/10/26 00:34:10;;;;;;;2.72;2.10;;;18.80;69.30;;;;;;6185735;23;20142;-80
2022/10/26 00:36:36;;;;;;;2.92;1.90;;;18.80;69.40;;;;;;6184324;23;20174;-80
2022/10/26 00:39:02;;;;;;;2.22;2.03;;;18.90;69.40;;;;;;6183826;23;20201;-80
2022/10/26 00:41:29;;;;;;;2.10;1.90;;;18.80;69.30;;;;;;6184267;23;20143;-80
2022/10/26 00:43:59;;;;;;;3.20;1.92;;;18.90;69.40;;;;;;6184420;23;20151;-79
2022/10/26 00:46:29;;;;;;;3.45;2.20;;;18.80;69.30;;;;;;6183468;23;20151;-79
2022/10/26 00:48:57;;;;;;;2.20;2.00;;;18.80;69.40;;;;;;6159944;23;20155;-80
2022/10/26 00:51:41;;;;;;;2.25;2.00;;;18.80;69.40;;;;;;6159736;23;20594;-79
2022/10/26 00:54:10;;;;;;;2.10;1.90;;;18.80;69.60;;;;;;6186018;23;20193;-80
2022/10/26 00:56:36;;;;;;;2.42;1.90;;;18.80;69.50;;;;;;6184137;23;20136;-80
2022/10/26 00:59:05;;;;;;;2.17;1.98;;;18.80;69.60;;;;;;6184405;23;20477;-80
2022/10/26 01:01:32;;;;;;;2.33;2.13;;;18.70;69.60;;;;;;6184496;23;20229;-80
2022/10/26 01:03:58;;;;;;;2.22;2.03;;;18.80;69.60;;;;;;6184463;23;20578;-79
2022/10/26 01:06:25;;;;;;;2.38;2.00;;;18.80;69.70;;;;;;6184286;23;20560;-80
2022/10/26 01:08:54;;;;;;;2.00;1.90;;;18.70;69.60;;;;;;6159613;23;20150;-80
2022/10/26 01:11:20;;;;;;;2.15;1.90;;;18.70;69.70;;;;;;6133937;23;20161;-80
2022/10/26 01:13:47;;;;;;;1.95;1.85;;;18.80;69.70;;;;;;6159665;23;20531;-80
2022/10/26 01:16:33;;;;;;;2.92;2.10;;;18.80;69.80;;;;;;6184005;23;20135;-80
2022/10/26 01:19:22;;;;;;;2.30;2.10;;;18.70;69.70;;;;;;6184254;23;20143;-80
2022/10/26 01:21:59;;;;;;;2.30;1.92;;;18.70;69.80;;;;;;6183753;23;20543;-79
2022/10/26 01:24:52;;;;;;;2.10;1.88;;;18.70;69.80;;;;;;6184286;23;20506;-80
2022/10/26 01:27:35;;;;;;;2.80;2.10;;;18.70;69.80;;;;;;6183918;23;20261;-80
2022/10/26 01:30:18;;;;;;;2.47;2.00;;;18.70;69.80;;;;;;6184659;23;20481;-80
2022/10/26 01:33:04;;;;;;;2.85;2.10;;;18.70;69.80;;;;;;6185301;23;20135;-80
2022/10/26 01:35:34;;;;;;;2.10;1.90;;;18.70;69.80;;;;;;6185384;23;20210;-80
2022/10/26 01:38:18;;;;;;;2.25;2.05;;;18.70;69.80;;;;;;6158985;23;20194;-79
2022/10/26 01:40:50;;;;;;;1.80;1.70;;;18.70;69.70;;;;;;6184084;23;20244;-80
2022/10/26 01:43:16;;;;;;;2.35;2.15;;;18.70;69.80;;;;;;6183797;23;20139;-80
2022/10/26 01:45:44;;;;;;;2.40;2.00;;;18.70;69.80;;;;;;6184302;23;20490;-80
2022/10/26 01:48:11;;;;;;;1.90;1.80;;;18.80;69.90;;;;;;6183845;23;20131;-80
2022/10/26 01:50:37;;;;;;;1.98;1.83;;;18.70;69.80;;;;;;6183833;23;20150;-80
2022/10/26 01:53:03;;;;;;;2.20;2.00;;;18.70;69.70;;;;;;6183776;23;20158;-80
2022/10/26 01:55:48;;;;;;;3.47;1.70;;;18.70;69.60;;;;;;6185560;23;20559;-80
2022/10/26 01:58:31;;;;;;;3.38;2.20;;;18.70;69.80;;;;;;6183940;23;20131;-81
2022/10/26 02:01:35;;;;;;;2.38;2.00;;;18.70;69.80;;;;;;6159675;23;20182;-80
2022/10/26 02:04:26;;;;;;;2.20;1.90;;;18.70;69.80;;;;;;6184060;23;20161;-79
2022/10/26 02:07:01;;;;;;;2.67;2.00;;;18.70;70.00;;;;;;6183554;23;20215;-79
2022/10/26 02:09:37;;;;;;;2.40;2.20;;;18.70;69.70;;;;;;6185809;23;20214;-79
2022/10/26 02:12:09;;;;;;;1.85;1.73;;;18.70;69.70;;;;;;6184311;23;20225;-79
2022/10/26 02:14:49;;;;;;;2.30;2.10;;;18.70;70.00;;;;;;6158820;23;20144;-80
2022/10/26 02:17:23;;;;;;;2.03;1.83;;;18.70;70.00;;;;;;6185219;23;20131;-80
2022/10/26 02:20:01;;;;;;;2.22;2.03;;;18.70;69.80;;;;;;6183855;23;20575;-80
2022/10/26 02:22:45;;;;;;;2.33;1.98;;;18.70;69.90;;;;;;6159400;23;20154;-79
2022/10/26 02:25:15;;;;;;;2.55;1.92;;;18.70;70.00;;;;;;6185781;23;20142;-79
2022/10/26 02:27:44;;;;;;;2.17;1.98;;;18.60;70.00;;;;;;6183633;23;20139;-80
2022/10/26 02:30:10;;;;;;;2.10;1.90;;;18.70;70.10;;;;;;6185152;23;20139;-80
2022/10/26 02:32:38;;;;;;;2.25;2.00;;;18.70;69.80;;;;;;6158893;23;20234;-80
2022/10/26 02:35:04;;;;;;;2.10;1.90;;;18.70;70.10;;;;;;6183478;23;20143;-79
2022/10/26 02:37:31;;;;;;;3.20;2.13;;;18.70;70.00;;;;;;6183557;23;20270;-80
2022/10/26 02:39:57;;;;;;;2.13;1.80;;;18.70;70.00;;;;;;6184956;23;20194;-81
2022/10/26 02:42:23;;;;;;;2.33;2.00;;;18.70;70.00;;;;;;6185598;23;20482;-80
2022/10/26 02:44:56;;;;;;;2.92;2.30;;;18.70;70.00;;;;;;6185367;23;20222;-80
2022/10/26 02:47:22;;;;;;;2.03;1.73;;;18.60;70.10;;;;;;6186232;23;20147;-80
2022/10/26 02:49:48;;;;;;;2.20;2.00;;;18.70;69.90;;;;;;6185427;23;20566;-80
2022/10/26 02:52:16;;;;;;;3.08;2.20;;;18.70;70.10;;;;;;6160958;23;20143;-80
2022/10/26 02:54:59;;;;;;;2.10;1.90;;;18.70;70.10;;;;;;6185292;23;20138;-81
2022/10/26 02:57:29;;;;;;;2.10;1.90;;;18.60;69.90;;;;;;6185846;23;20201;-79
2022/10/26 02:59:55;;;;;;;3.13;1.85;;;18.70;70.00;;;;;;6186590;23;20537;-80
2022/10/26 03:02:21;;;;;;;2.30;2.10;;;18.70;70.00;;;;;;6187067;23;20131;-79
2022/10/26 03:04:48;;;;;;;4.20;1.95;;;18.70;70.00;;;;;;6186687;23;20142;-80
2022/10/26 03:07:20;;;;;;;1.98;1.70;;;18.60;70.10;;;;;;6185102;23;20127;-80
2022/10/26 03:09:46;;;;;;;2.47;2.00;;;18.60;70.00;;;;;;6184942;23;20237;-80
2022/10/26 03:12:12;;;;;;;2.42;2.20;;;18.60;69.90;;;;;;6185054;23;20536;-80
2022/10/26 03:14:40;;;;;;;2.25;2.00;;;18.60;70.10;;;;;;6186992;23;20138;-80
2022/10/26 03:17:06;;;;;;;2.38;2.10;;;18.60;69.80;;;;;;6184931;23;20197;-79
2022/10/26 03:19:32;;;;;;;3.60;1.92;;;18.60;70.00;;;;;;6185062;23;20173;-80
2022/10/26 03:22:02;;;;;;;1.92;1.73;;;18.60;70.00;;;;;;6186395;23;20220;-80
2022/10/26 03:24:32;;;;;;;1.80;1.70;;;18.60;70.20;;;;;;6159740;23;20157;-79
2022/10/26 03:26:58;;;;;;;2.20;2.00;;;18.60;70.10;;;;;;6159618;23;20161;-80
2022/10/26 03:29:27;;;;;;;2.20;1.92;;;18.60;70.10;;;;;;6160269;23;20193;-80
2022/10/26 03:31:54;;;;;;;2.72;1.95;;;18.60;70.20;;;;;;6185484;23;20127;-80
2022/10/26 03:34:20;;;;;;;3.03;1.88;;;18.60;70.10;;;;;;6160284;23;20147;-80
2022/10/26 03:36:46;;;;;;;2.88;1.83;;;18.60;70.20;;;;;;6185036;23;20154;-80
2022/10/26 03:39:12;;;;;;;2.03;1.83;;;18.60;71.00;;;;;;6185303;23;20228;-80
2022/10/26 03:41:38;;;;;;;1.88;1.77;;;18.60;70.10;;;;;;6185263;23;20222;-80
2022/10/26 03:44:05;;;;;;;1.83;1.73;;;18.60;70.10;;;;;;6186681;23;20138;-79
2022/10/26 03:46:31;;;;;;;1.90;1.80;;;18.70;70.30;;;;;;6185619;23;20131;-80
2022/10/26 03:48:57;;;;;;;2.30;2.00;;;18.60;70.10;;;;;;6184900;23;20542;-80
2022/10/26 03:51:23;;;;;;;2.00;1.80;;;18.60;70.10;;;;;;6184496;23;20506;-79
2022/10/26 03:53:49;;;;;;;1.80;1.70;;;18.60;70.00;;;;;;6184958;23;20165;-80
2022/10/26 03:56:15;;;;;;;2.55;2.20;;;18.60;70.20;;;;;;6161284;23;20462;-81
2022/10/26 03:58:41;;;;;;;1.85;1.75;;;18.60;70.30;;;;;;6186726;23;20131;-80
2022/10/26 04:01:07;;;;;;;1.88;1.77;;;18.60;70.30;;;;;;6184498;23;20163;-79
2022/10/26 04:03:33;;;;;;;1.92;1.73;;;18.60;71.10;;;;;;6184955;23;20145;-80
2022/10/26 04:06:00;;;;;;;1.90;1.73;;;18.60;70.00;;;;;;6184694;23;20182;-79
2022/10/26 04:08:26;;;;;;;1.95;1.80;;;18.50;70.10;;;;;;6185995;23;20135;-79
2022/10/26 04:10:52;;;;;;;2.22;2.03;;;18.60;70.40;;;;;;6159829;23;20182;-81
2022/10/26 04:13:21;;;;;;;2.25;2.05;;;18.60;70.10;;;;;;6184941;23;20459;-80
2022/10/26 04:15:48;;;;;;;1.63;1.50;;;18.60;70.10;;;;;;6185234;23;20522;-80
2022/10/26 04:18:15;;;;;;;1.98;1.63;;;18.60;69.90;;;;;;6133022;23;20237;-80
2022/10/26 04:20:42;;;;;;;1.80;1.70;;;18.60;70.10;;;;;;6157406;23;20208;-81
2022/10/26 04:23:11;;;;;;;3.05;2.03;;;18.60;70.10;;;;;;6158346;23;20159;-79
2022/10/26 04:25:38;;;;;;;1.90;1.75;;;18.60;70.20;;;;;;6158437;23;20158;-80
2022/10/26 04:28:06;;;;;;;2.00;1.80;;;18.60;71.20;;;;;;6183030;23;20155;-81
2022/10/26 04:30:33;;;;;;;2.08;1.83;;;18.60;70.10;;;;;;6158693;23;20167;-80
2022/10/26 04:32:59;;;;;;;1.90;1.80;;;18.60;70.10;;;;;;6158679;23;20225;-80
2022/10/26 04:35:25;;;;;;;1.95;1.73;;;18.60;70.10;;;;;;6158709;23;20150;-80
2022/10/26 04:37:56;;;;;;;1.80;1.70;;;18.60;70.10;;;;;;6184202;23;20197;-80
2022/10/26 04:40:23;;;;;;;2.10;1.77;;;18.60;70.10;;;;;;6184099;23;20509;-80
2022/10/26 04:42:53;;;;;;;2.28;1.70;;;18.70;70.10;;;;;;6185707;23;20146;-80
2022/10/26 04:45:18;;;;;;;1.88;1.70;;;18.60;70.10;;;;;;6158889;23;20161;-81
2022/10/26 04:47:44;;;;;;;2.25;2.05;;;18.60;70.20;;;;;;6184582;23;20440;-80
2022/10/26 04:50:11;;;;;;;2.67;1.88;;;18.60;70.30;;;;;;6184152;23;20146;-80
2022/10/26 04:52:37;;;;;;;2.25;1.80;;;18.60;70.40;;;;;;6186470;23;20138;-80
2022/10/26 04:55:04;;;;;;;2.30;1.77;;;18.60;70.50;;;;;;6184089;23;20482;-80
2022/10/26 04:57:32;;;;;;;1.60;1.50;;;18.60;70.20;;;;;;6184225;23;20544;-79
2022/10/26 04:59:59;;;;;;;1.90;1.70;;;18.50;70.30;;;;;;6159300;23;20614;-80
2022/10/26 05:02:27;;;;;;;1.90;1.70;;;18.60;70.90;;;;;;6159837;23;20147;-80
2022/10/26 05:04:53;;;;;;;1.83;1.70;;;18.60;69.90;;;;;;6184189;23;20135;-81
2022/10/26 05:07:19;;;;;;;2.95;1.60;;;18.60;69.90;;;;;;6159126;23;20142;-80
2022/10/26 05:09:46;;;;;;;1.40;1.30;;;18.60;69.30;;;;;;6185494;23;20206;-80
2022/10/26 05:12:11;;;;;;;1.50;1.40;;;18.60;69.20;;;;;;6184706;23;20582;-81
2022/10/26 05:14:37;;;;;;;1.40;1.30;;;18.70;68.30;;;;;;6184728;23;20131;-80
2022/10/26 05:17:03;;;;;;;1.20;1.10;;;18.70;67.70;;;;;;6184477;23;20135;-82
2022/10/26 05:19:29;;;;;;;1.27;1.17;;;18.70;67.50;;;;;;6183999;23;20213;-80
2022/10/26 05:21:54;;;;;;;1.30;1.20;;;18.70;67.40;;;;;;6184136;23;20614;-80
2022/10/26 05:24:20;;;;;;;1.23;1.13;;;18.70;67.00;;;;;;6184207;23;20209;-80
2022/10/26 05:26:46;;;;;;;1.02;0.93;;;18.70;66.80;;;;;;6183916;23;20193;-80
2022/10/26 05:29:11;;;;;;;1.00;1.00;;;18.70;66.40;;;;;;6184408;23;20467;-79
2022/10/26 05:31:37;;;;;;;1.40;1.30;;;18.80;67.00;;;;;;6184004;23;20131;-80
2022/10/26 05:34:05;;;;;;;1.10;1.00;;;18.70;66.60;;;;;;6183866;23;20135;-80
2022/10/26 05:36:31;;;;;;;1.20;1.10;;;18.80;66.60;;;;;;6183271;23;20151;-80
2022/10/26 05:38:57;;;;;;;1.40;1.30;;;18.80;66.30;;;;;;6185492;23;20573;-80
2022/10/26 05:41:24;;;;;;;0.85;0.85;;;18.80;66.60;;;;;;6183811;23;20187;-79
2022/10/26 05:43:50;;;;;;;1.40;1.17;;;18.80;66.30;;;;;;6184250;23;20135;-80
2022/10/26 05:46:16;;;;;;;1.10;1.00;;;18.80;66.10;;;;;;6183844;23;20677;-80
2022/10/26 05:48:41;;;;;;;1.13;0.90;;;18.80;66.20;;;;;;6160854;23;20143;-80
2022/10/26 05:51:07;;;;;;;0.85;0.85;;;18.80;66.10;;;;;;6185546;23;20138;-80
2022/10/26 05:53:33;;;;;;;1.17;1.08;;;18.90;66.00;;;;;;6186512;23;20130;-80
2022/10/26 05:55:59;;;;;;;1.02;0.90;;;18.80;65.70;;;;;;6184935;23;20162;-80
2022/10/26 05:58:25;;;;;;;1.05;0.95;;;18.80;65.30;;;;;;6184444;23;20138;-80
2022/10/26 06:01:11;;;;;;;0.80;0.80;;;18.80;65.80;;;;;;6183758;23;20170;-80
2022/10/26 06:03:58;;;;;;;1.08;0.98;;;18.80;65.70;;;;;;6184090;23;20176;-80
2022/10/26 06:06:33;;;;;;;0.80;0.80;;;18.80;65.70;;;;;;6159450;23;20197;-81
2022/10/26 06:09:02;;;;;;;1.00;0.90;;;18.80;65.70;;;;;;6185842;23;20136;-81
2022/10/26 06:11:28;;;;;;;2.38;1.10;;;18.80;65.10;;;;;;6133980;23;20185;-82
2022/10/26 06:13:59;;;;;;;1.35;0.88;;;18.80;65.60;;;;;;6186494;23;20169;-82
2022/10/26 06:17:20;;;;;;;;;;;;;;;;;;;;;
2022/10/26 06:20:14;;;;;;;0.80;0.80;;;18.80;65.30;;;;;;6200975;23;20209;-83
2022/10/26 06:35:28;;;;;;;2.17;0.88;;;18.80;64.70;;;;;;6162891;23;20175;-84
2022/10/26 06:59:44;;;;;;;0.80;0.80;;;18.90;63.90;;;;;;6170528;23;20198;-81
2022/10/26 07:02:42;;;;;;;2.60;0.73;;;18.90;63.40;;;;;;6093288;23;20166;-80
2022/10/26 07:05:15;;;;;;;0.60;0.60;;;19.00;63.60;;;;;;6131116;23;20195;-82
2022/10/26 07:08:04;;;;;;;0.75;0.63;;;19.00;63.00;;;;;;6120389;23;20162;-83
2022/10/26 07:10:30;;;;;;;2.08;0.80;;;19.00;63.20;;;;;;6120903;23;20159;-80
2022/10/26 07:13:09;;;;;;;0.93;0.68;;;19.00;63.10;;;;;;6191004;23;20147;-81
2022/10/26 07:15:42;;;;;;;3.85;0.60;;;19.00;62.70;;;;;;6084463;23;20210;-82
2022/10/26 07:18:08;;;;;;;0.73;0.60;;;19.00;62.70;;;;;;6079872;23;20164;-81
2022/10/26 07:20:37;;;;;;;1.85;0.68;;;19.00;62.50;;;;;;6077511;23;20235;-81
2022/10/26 07:23:11;;;;;;;0.73;0.50;;;19.00;62.50;;;;;;6079277;23;20156;-81
2022/10/26 07:25:39;;;;;;;2.33;0.73;;;19.00;62.30;;;;;;6045478;23;20157;-80
2022/10/26 07:28:06;;;;;;;0.43;0.43;;;18.90;62.30;;;;;;6018693;23;20161;-81
2022/10/26 07:30:32;;;;;;;3.50;0.50;;;18.90;62.40;;;;;;6018670;23;20202;-81
2022/10/26 07:33:29;;;;;;;4.22;0.60;;;18.90;62.00;;;;;;6039648;23;20466;-80
2022/10/26 07:50:22;;;;;;;1.02;0.50;;;19.00;61.60;;;;;;6165277;23;20158;-82
2022/10/26 07:52:45;;;;;;;1.27;0.47;;;19.00;61.80;;;;;;6162657;23;20155;-81
2022/10/26 07:55:12;;;;;;;0.50;0.50;;;19.00;61.60;;;;;;6151680;23;20169;-81
2022/10/26 07:57:54;;;;;;;1.08;0.45;;;19.00;61.50;;;;;;6148489;23;20162;-82
2022/10/26 08:00:34;;;;;;;0.50;0.50;;;19.00;61.40;;;;;;6174071;23;20179;-82
2022/10/26 08:03:03;;;;;;;0.40;0.40;;;19.00;61.80;;;;;;6136043;23;20631;-80
2022/10/26 08:05:29;;;;;;;0.40;0.40;;;19.00;61.50;;;;;;5996021;23;20159;-80
2022/10/26 08:08:04;;;;;;;0.40;0.40;;;19.10;61.40;;;;;;5974016;23;20594;-83
2022/10/26 08:10:34;;;;;;;0.43;0.40;;;19.10;61.80;;;;;;5909961;24;20168;-81
2022/10/26 08:13:13;;;;;;;0.60;0.60;;;19.10;61.90;;;;;;5865532;24;20169;-82
2022/10/26 08:15:41;;;;;;;0.75;0.50;;;19.10;62.00;;;;;;5864554;24;20633;-79
2022/10/26 08:18:08;;;;;;;1.38;0.55;;;19.10;61.70;;;;;;5931522;24;20162;-82
2022/10/26 08:20:39;;;;;;;1.98;0.60;;;19.10;61.80;;;;;;5910330;24;20308;-81
2022/10/26 08:23:09;;;;;;;0.50;0.50;;;19.10;62.20;;;;;;5912731;24;20232;-84
2022/10/26 08:28:49;;;;;;;0.50;0.50;;;19.10;62.00;;;;;;5787358;24;20165;-82
2022/10/26 08:32:26;;;;;;;0.70;0.50;;;19.10;62.00;;;;;;5744518;25;20230;-83
2022/10/26 08:34:47;;;;;;;0.50;0.50;;;19.10;62.10;;;;;;5701948;25;20182;-83
2022/10/26 08:37:37;;;;;;;0.65;0.60;;;19.10;62.20;;;;;;5807861;24;20157;-84
2022/10/26 08:40:14;;;;;;;;;;;;;;;;;;;;;
2022/10/26 08:43:03;;;;;;;0.50;0.50;;;19.10;62.10;;;;;;5885485;24;20158;-83
2022/10/26 08:56:17;;;;;;;2.13;0.57;;;19.10;62.00;;;;;;5910249;24;20196;-81
2022/10/26 09:02:58;;;;;;;0.60;0.55;;;19.10;62.00;;;;;;6084428;23;20515;-83
2022/10/26 09:06:13;;;;;;;1.48;0.55;;;19.20;62.10;;;;;;6091138;23;20167;-82
2022/10/26 09:09:45;;;;;;;0.73;0.30;;;19.20;62.00;;;;;;6021654;23;20151;-81
2022/10/26 09:13:00;;;;;;;;;;;;;;;;;;;;;
2022/10/26 09:19:48;;;;;;;1.23;0.70;;;19.20;62.30;;;;;;5967253;24;20167;-80
2022/10/26 09:25:44;;;;;;;0.68;0.45;;;19.10;62.10;;;;;;5942030;23;20223;-83
2022/10/26 09:28:41;;;;;;;0.47;0.40;;;19.10;61.90;;;;;;5919313;24;20163;-82
2022/10/26 09:31:59;;;;;;;0.50;0.50;;;19.20;62.00;;;;;;5939702;24;20248;-84
2022/10/26 09:34:59;;;;;;;1.23;0.60;;;19.10;62.00;;;;;;5893460;24;20169;-84
2022/10/26 09:38:20;;;;;;;1.20;0.40;;;19.20;61.90;;;;;;5825036;24;20153;-84
2022/10/26 09:45:03;;;;;;;1.50;0.50;;;19.20;61.80;;;;;;5702059;25;20211;-84
2022/10/26 09:47:51;;;;;;;;;;;;;;;;;;;;;
2022/10/26 09:50:55;;;;;;;1.33;0.60;;;19.20;61.40;;;;;;5935340;24;20171;-80
2022/10/26 09:53:31;;;;;;;0.50;0.50;;;19.20;61.50;;;;;;5899888;24;20161;-80
2022/10/26 09:56:14;;;;;;;0.43;0.43;;;19.20;61.50;;;;;;5892571;24;20266;-83
2022/10/26 09:59:00;;;;;;;1.83;0.43;;;19.20;61.40;;;;;;5893129;24;20210;-82
2022/10/26 10:01:32;;;;;;;0.40;0.22;;;19.20;61.20;;;;;;5894885;24;20200;-81
2022/10/26 10:04:19;;;;;;;0.32;0.32;;;19.20;61.00;;;;;;5913138;24;20177;-82
2022/10/26 10:06:51;;;;;;;1.48;0.50;;;19.20;61.10;;;;;;5968400;24;20160;-82
2022/10/26 10:09:23;;;;;;;0.55;0.50;;;19.20;61.10;;;;;;5922437;24;20167;-82
2022/10/26 10:12:19;;;;;;;3.05;0.60;;;19.20;61.00;;;;;;5923165;24;20153;-82
2022/10/26 10:15:12;;;;;;;0.88;0.60;;;19.20;60.90;;;;;;5936263;24;20168;-83
2022/10/26 10:17:48;;;;;;;0.88;0.40;;;19.20;60.80;;;;;;5943165;24;20156;-82
2022/10/26 10:20:32;;;;;;;1.45;0.50;;;19.20;60.70;;;;;;5985639;23;20190;-82
2022/10/26 10:23:03;;;;;;;0.52;0.40;;;19.20;60.60;;;;;;6034132;23;20221;-81
2022/10/26 10:25:41;;;;;;;2.58;0.57;;;19.30;60.80;;;;;;6036589;23;20161;-80
2022/10/26 10:28:52;;;;;;;2.95;0.50;;;19.20;60.30;;;;;;6000221;24;20151;-81
2022/10/26 10:31:48;;;;;;;4.88;0.60;;;19.20;60.40;;;;;;5998795;23;20159;-80
2022/10/26 10:34:28;;;;;;;2.88;0.70;;;19.20;60.90;;;;;;5987737;23;20300;-81
2022/10/26 10:36:59;;;;;;;4.90;0.70;;;19.20;60.70;;;;;;5981406;23;20165;-84
2022/10/26 10:39:42;;;;;;;2.50;0.60;;;19.20;60.60;;;;;;6001386;23;20155;-82
2022/10/26 10:42:36;;;;;;;1.10;0.50;;;19.20;60.50;;;;;;6003118;23;20155;-82
2022/10/26 10:45:29;;;;;;;2.15;0.50;;;19.20;60.40;;;;;;5974406;24;20608;-81
2022/10/26 10:48:15;;;;;;;3.75;0.57;;;19.30;60.50;;;;;;5970068;23;20163;-82
2022/10/26 10:51:12;;;;;;;3.95;0.50;;;19.20;60.30;;;;;;5948085;24;20176;-84
2022/10/26 10:53:56;;;;;;;3.65;0.65;;;19.30;60.10;;;;;;5921650;24;20169;-81
2022/10/26 10:56:48;;;;;;;1.00;0.50;;;19.30;60.50;;;;;;5915582;24;20198;-82
2022/10/26 10:59:28;;;;;;;2.83;0.50;;;19.30;59.70;;;;;;5928533;24;20161;-82
2022/10/26 11:01:59;;;;;;;2.25;0.50;;;19.30;59.90;;;;;;5942307;24;20166;-82
2022/10/26 11:08:17;;;;;;;3.92;0.60;;;19.30;60.10;;;;;;5960377;24;20155;-82
2022/10/26 11:10:59;;;;;;;1.25;0.40;;;19.20;59.70;;;;;;5976858;23;20681;-82
2022/10/26 11:13:54;;;;;;;2.88;0.38;;;19.30;59.80;;;;;;5981236;23;20165;-82
2022/10/26 11:16:47;;;;;;;0.95;0.40;;;19.30;59.80;;;;;;5984886;23;20159;-82
2022/10/26 11:19:46;;;;;;;4.65;0.40;;;19.30;60.00;;;;;;5949267;24;20224;-82
2022/10/26 11:22:29;;;;;;;0.70;0.70;;;19.30;59.70;;;;;;5971358;24;20167;-82
2022/10/26 11:25:05;;;;;;;0.88;0.47;;;19.30;59.60;;;;;;5989688;24;20151;-82
2022/10/26 11:27:46;;;;;;;1.25;0.47;;;19.20;59.60;;;;;;5998805;24;20155;-82
2022/10/26 11:37:46;;;;;;;0.40;0.35;;;19.20;59.40;;;;;;6026790;23;20146;-84
2022/10/26 11:40:46;;;;;;;1.40;0.47;;;19.20;59.60;;;;;;6024669;23;20214;-82
2022/10/26 11:43:48;;;;;;;2.95;0.60;;;19.20;59.30;;;;;;6029389;23;20210;-82
2022/10/26 12:05:41;;;;;;;0.98;0.40;;;19.30;59.20;;;;;;6219621;22;20222;-82
2022/10/26 12:09:09;;;;;;;2.30;0.47;;;19.20;59.30;;;;;;6218846;23;20217;-81
2022/10/26 12:11:51;;;;;;;2.85;0.60;;;19.30;59.10;;;;;;6170229;23;20197;-81
2022/10/26 12:14:25;;;;;;;0.95;0.40;;;19.30;59.00;;;;;;6194210;23;20183;-82
2022/10/26 12:17:29;;;;;;;0.77;0.50;;;19.20;58.90;;;;;;6138187;23;20177;-81
2022/10/26 12:20:46;;;;;;;1.65;0.28;;;19.20;58.60;;;;;;6185540;23;20632;-81
2022/10/26 12:23:17;;;;;;;2.38;0.40;;;19.30;58.90;;;;;;6233840;23;20153;-80
2022/10/26 12:26:27;;;;;;;0.35;0.35;;;19.20;58.90;;;;;;6163295;23;20181;-81
2022/10/26 12:29:23;;;;;;;0.95;0.60;;;19.20;59.10;;;;;;6235328;23;20149;-80
2022/10/26 12:32:37;;;;;;;0.40;0.40;;;19.30;58.50;;;;;;6200576;23;20222;-82
2022/10/26 12:35:39;;;;;;;0.70;0.50;;;19.30;58.20;;;;;;6178781;23;20193;-80
2022/10/26 12:38:41;;;;;;;0.52;0.35;;;19.20;58.80;;;;;;6176182;23;20150;-81
2022/10/26 12:41:22;;;;;;;0.63;0.30;;;19.20;58.30;;;;;;6174340;23;20185;-83
2022/10/26 12:43:55;;;;;;;1.25;0.32;;;19.30;58.50;;;;;;6173794;23;20147;-81
2022/10/26 12:46:37;;;;;;;0.43;0.35;;;19.30;58.40;;;;;;6173022;23;20154;-81
2022/10/26 12:49:08;;;;;;;0.40;0.40;;;19.30;58.00;;;;;;6117678;23;20151;-80
2022/10/26 12:51:34;;;;;;;1.00;0.60;;;19.30;58.20;;;;;;6118766;23;20159;-81
2022/10/26 12:54:43;;;;;;;2.78;0.55;;;19.30;58.20;;;;;;6167493;23;20156;-80
2022/10/26 12:57:23;;;;;;;1.60;0.50;;;19.30;58.10;;;;;;6142059;23;20156;-80
2022/10/26 13:00:17;;;;;;;0.40;0.40;;;19.30;58.10;;;;;;6143672;23;20598;-81
2022/10/26 13:03:40;;;;;;;0.45;0.45;;;19.30;58.00;;;;;;6022275;23;20167;-81
2022/10/26 13:06:34;;;;;;;0.47;0.47;;;19.30;58.40;;;;;;6015553;23;20193;-82
2022/10/26 13:09:13;;;;;;;0.50;0.50;;;19.30;58.20;;;;;;5997392;24;20162;-81
2022/10/26 13:11:47;;;;;;;0.65;0.52;;;19.30;58.50;;;;;;5996598;24;20707;-80
2022/10/26 13:14:31;;;;;;;0.70;0.70;;;19.30;57.80;;;;;;5997589;24;20159;-80
2022/10/26 13:17:00;;;;;;;0.60;0.57;;;19.30;58.20;;;;;;5996024;24;20200;-81
2022/10/26 13:20:00;;;;;;;0.93;0.80;;;19.30;58.00;;;;;;5962965;24;20236;-81
2022/10/26 13:52:59;;;;;;;1.90;0.50;;;19.30;57.60;;;;;;6234202;22;20231;-83
2022/10/26 13:56:33;;;;;;;1.38;0.70;;;19.30;57.80;;;;;;6000659;23;20190;-82
2022/10/26 14:02:55;;;;;;;1.05;0.85;;;19.30;57.60;;;;;;5876332;24;20219;-84
2022/10/26 14:05:46;;;;;;;0.80;0.80;;;19.30;57.70;;;;;;5783818;24;20172;-83
2022/10/26 14:08:29;;;;;;;3.40;0.70;;;19.30;57.60;;;;;;5780159;24;20165;-83
2022/10/26 15:33:59;;;;;;;3.72;1.10;;;19.40;57.20;;;;;;6248985;22;20199;-83
2022/10/26 15:39:47;;;;;;;1.30;1.00;;;19.30;57.40;;;;;;6200707;23;20169;-82
2022/10/26 15:48:17;;;;;;;1.95;0.70;;;19.40;57.50;;;;;;6293090;22;20180;-83
2022/10/26 15:51:02;;;;;;;0.80;0.80;;;19.40;57.50;;;;;;6238053;22;20149;-87
2022/10/26 15:53:56;;;;;;;;;;;;;;;;;;;;;
2022/10/26 15:57:22;;;;;;;0.70;0.70;;;19.40;57.80;;;;;;6214177;22;20149;-84
2022/10/26 16:01:37;;;;;;;1.15;0.77;;;19.40;57.10;;;;;;6295938;22;20212;-85
2022/10/26 16:03:36;;;;;;;1.63;0.70;;;19.40;57.40;;;;;;6118263;23;20164;-84
2022/10/26 16:07:00;;;;;;;1.45;0.90;;;19.40;57.20;;;;;;6089400;23;20152;-83
2022/10/26 16:09:26;;;;;;;1.13;0.80;;;19.50;57.60;;;;;;6098350;23;20156;-81
2022/10/26 16:12:25;;;;;;;2.05;0.80;;;19.40;57.50;;;;;;6116708;23;20163;-82
2022/10/26 16:15:15;;;;;;;;;;;;;;;;;;;;;
2022/10/26 16:17:52;;;;;;;1.00;0.90;;;19.40;57.60;;;;;;6063895;23;20574;-82
2022/10/26 16:20:43;;;;;;;2.47;0.93;;;19.40;57.70;;;;;;6048846;23;20249;-85
2022/10/26 16:26:07;;;;;;;1.50;1.10;;;19.40;57.60;;;;;;6027773;23;20162;-87
2022/10/26 16:29:18;;;;;;;1.70;0.90;;;19.50;58.20;;;;;;6020270;23;20150;-84
2022/10/26 16:32:31;;;;;;;0.90;0.75;;;19.50;57.30;;;;;;5965503;24;20160;-86
2022/10/26 16:35:04;;;;;;;2.20;0.80;;;19.50;57.50;;;;;;5945807;24;20156;-85
2022/10/26 16:43:51;;;;;;;4.90;0.98;;;19.50;58.30;;;;;;6040832;23;20229;-85
2022/10/26 16:46:20;;;;;;;1.05;0.70;;;19.60;58.20;;;;;;5991953;23;20197;-85
2022/10/26 16:48:51;;;;;;;1.20;0.77;;;19.60;57.60;;;;;;5984897;23;20627;-84
2022/10/26 16:51:27;;;;;;;1.70;0.85;;;19.60;57.20;;;;;;6026015;23;20155;-85
2022/10/26 16:54:06;;;;;;;3.13;1.05;;;19.60;57.80;;;;;;5965739;24;20166;-87
2022/10/26 16:56:32;;;;;;;2.20;0.85;;;19.60;58.30;;;;;;6009346;23;20170;-84
2022/10/26 16:59:08;;;;;;;2.13;0.90;;;19.60;58.00;;;;;;6008695;23;20183;-84
2022/10/26 17:02:01;;;;;;;2.08;0.68;;;19.80;58.40;;;;;;5983574;24;20183;-88
2022/10/26 17:04:29;;;;;;;2.65;0.90;;;20.10;57.80;;;;;;6008026;23;20200;-84
2022/10/26 17:09:49;;;;;;;1.05;0.82;;;20.30;56.30;;;;;;6133593;23;20183;-86
2022/10/26 17:12:23;;;;;;;1.30;1.10;;;20.10;56.50;;;;;;6103686;23;20164;-86
2022/10/26 17:14:56;;;;;;;6.50;1.17;;;20.00;57.20;;;;;;6063389;23;20238;-85
2022/10/26 17:17:28;;;;;;;2.10;1.08;;;19.90;57.80;;;;;;6066747;23;20187;-85
2022/10/26 17:20:30;;;;;;;;;;;;;;;;;;;;;
2022/10/26 17:22:57;;;;;;;2.17;0.75;;;19.80;57.70;;;;;;6127136;23;20184;-84
2022/10/26 17:25:33;;;;;;;;;;;;;;;;;;;;;
2022/10/26 17:28:11;;;;;;;1.88;0.70;;;19.90;58.20;;;;;;6159826;23;20173;-86
2022/10/26 17:30:56;;;;;;;5.18;1.05;;;20.20;57.10;;;;;;6096483;23;20174;-86
2022/10/26 17:33:52;;;;;;;5.10;0.95;;;20.20;57.00;;;;;;6077247;23;20157;-84
2022/10/26 17:36:20;;;;;;;1.77;0.90;;;20.30;56.60;;;;;;6102380;23;20163;-83
2022/10/26 17:39:12;;;;;;;8.45;0.95;;;20.20;57.00;;;;;;6127117;23;20147;-83
2022/10/26 17:41:37;;;;;;;3.42;0.90;;;20.00;57.20;;;;;;6063424;23;20209;-82
2022/10/26 17:44:04;;;;;;;2.17;1.08;;;19.90;57.50;;;;;;6064574;23;20252;-82
2022/10/26 17:46:29;;;;;;;3.03;0.80;;;19.90;57.30;;;;;;6066052;23;20669;-82
2022/10/26 17:48:56;;;;;;;1.23;0.80;;;19.80;57.60;;;;;;6066862;23;20154;-81
2022/10/26 17:51:22;;;;;;;1.45;0.90;;;19.80;57.60;;;;;;6044442;23;20167;-81
2022/10/26 17:53:51;;;;;;;1.30;0.98;;;19.70;57.50;;;;;;6040110;23;20186;-82